Aviation Digital Data Service (ADDS)

Output produced by METARs form (0041 UTC 24 May 2022)
found at http://www.aviationweather.gov/metar/data/
 
LDDU 240030Z 11007KT CAVOK 19/13 Q1011
TAF LDDU 232325Z 2400/2500 11006KT CAVOK TX26/2412Z TN18/2403Z 
     BECMG 2407/2409 13014KT
       
LDOS 240030Z 09006KT CAVOK 15/09 Q1008
TAF LDOS 232325Z 2400/2500 11006KT CAVOK TX30/2414Z TN13/2404Z 
     PROB30 
     TEMPO 2417/2423 22015G30KT TSRA SCT040 FEW070CB
       
LDPL 240030Z 10009KT CAVOK 20/17 Q1008
TAF LDPL 232325Z 2400/2500 11009KT CAVOK TX25/2414Z TN17/2403Z 
     PROB30 
     TEMPO 2402/2405 BKN003 
     PROB30 
     TEMPO 2420/2500 -TSRA FEW040CB
       
LDRI 240030Z VRB02KT CAVOK 19/15 Q1009
TAF LDRI 232325Z 2400/2500 12005KT 9999 SCT045 TX26/2412Z TN17/2404Z 
     PROB40 
     TEMPO 2409/2417 16010KT 
     PROB30 
     TEMPO 2421/2500 -TSRA FEW045CB
       
LDSP 240030Z AUTO VRB04KT CAVOK 20/15 Q1009
TAF LDSP 232325Z 2400/2500 VRB02KT CAVOK TX27/2412Z TN18/2403Z 
     BECMG 2407/2409 11012KT 
     BECMG 2417/2419 09006KT
       
LDZD 240030Z 10005KT CAVOK 17/16 Q1008 NOSIG
TAF LDZD 232325Z 2400/2500 12008KT CAVOK TX28/2412Z TN15/2403Z 
     TEMPO 2408/2417 15015KT
       
LDZA 240030Z 22003KT CAVOK 16/13 Q1007 NOSIG
TAF LDZA 232325Z 2400/2500 24005KT CAVOK TX31/2414Z TN14/2404Z 
     TEMPO 2410/2420 25010KT 
     PROB30 
     TEMPO 2413/2417 TS FEW060CB